createdAt,value
2022-09-06T00:02:46.202Z,100642.19
2022-09-06T00:07:47.978Z,100637.94
2022-09-06T00:12:49.538Z,100632.50
2022-09-06T00:17:51.654Z,100633.50
2022-09-06T00:23:00.348Z,100629.75
2022-09-06T00:28:04.335Z,100633.44
2022-09-06T00:33:05.887Z,100634.19
2022-09-06T00:38:07.439Z,100625.16
2022-09-06T00:43:09.031Z,100621.44
2022-09-06T00:48:10.616Z,100623.06
2022-09-06T00:53:12.309Z,100619.75
2022-09-06T00:58:13.883Z,100621.25
2022-09-06T01:03:15.574Z,100612.69
2022-09-06T01:08:37.392Z,100625.75
2022-09-06T01:13:55.400Z,100619.75
2022-09-06T01:19:03.115Z,100611.63
2022-09-06T01:24:29.663Z,100602.72
2022-09-06T01:29:43.938Z,100606.88
2022-09-06T01:34:53.470Z,100618.97
2022-09-06T01:39:55.112Z,100611.69
2022-09-06T01:45:00.746Z,100602.59
2022-09-06T01:50:39.459Z,100605.31
2022-09-06T01:56:06.595Z,100619.41
2022-09-06T02:01:33.848Z,100612.97
2022-09-06T02:06:40.737Z,100627.13
2022-09-06T02:11:50.827Z,100621.38
2022-09-06T02:16:54.174Z,100608.19
2022-09-06T02:21:57.586Z,100619.03
2022-09-06T02:26:59.212Z,100623.13
2022-09-06T02:32:08.664Z,100626.75
2022-09-06T02:37:11.347Z,100623.00
2022-09-06T02:42:14.767Z,100616.00
2022-09-06T02:47:16.804Z,100625.13
2022-09-06T02:52:18.352Z,100625.47
2022-09-06T02:57:19.995Z,100615.88
2022-09-06T03:02:21.601Z,100614.50
2022-09-06T03:07:23.236Z,100605.66
2022-09-06T03:12:24.814Z,100618.19
2022-09-06T03:17:26.375Z,100600.13
2022-09-06T03:22:27.955Z,100606.72
2022-09-06T03:27:29.586Z,100592.28
2022-09-06T03:32:31.140Z,100598.72
2022-09-06T03:37:32.692Z,100600.72
2022-09-06T03:42:34.270Z,100599.38
2022-09-06T03:47:35.853Z,100604.25
2022-09-06T03:52:37.439Z,100595.22
2022-09-06T03:57:39.045Z,100590.78
2022-09-06T04:02:40.621Z,100595.38
2022-09-06T04:07:43.263Z,100592.31
2022-09-06T04:12:45.280Z,100587.03
2022-09-06T04:17:47.220Z,100579.72
2022-09-06T04:22:48.765Z,100580.00
2022-09-06T04:27:50.363Z,100573.56
2022-09-06T04:32:52.049Z,100579.56
2022-09-06T04:37:53.584Z,100573.59
2022-09-06T04:42:55.104Z,100563.44
2022-09-06T04:47:56.714Z,100554.16
2022-09-06T04:52:58.281Z,100562.41
2022-09-06T04:58:03.499Z,100561.47
2022-09-06T05:03:05.176Z,100564.72
2022-09-06T05:08:06.767Z,100559.84
2022-09-06T05:13:08.317Z,100553.16
2022-09-06T05:18:12.928Z,100560.38
2022-09-06T05:23:17.852Z,100561.88
2022-09-06T05:28:19.997Z,100565.41
2022-09-06T05:33:22.667Z,100564.91
2022-09-06T05:38:29.188Z,100557.69
2022-09-06T05:43:31.198Z,100555.75
2022-09-06T05:48:36.781Z,100555.16
2022-09-06T05:53:41.419Z,100561.53
2022-09-06T05:58:43.163Z,100565.13
2022-09-06T06:03:57.449Z,100567.31
2022-09-06T06:08:59.597Z,100564.66
2022-09-06T06:14:02.697Z,100552.44
2022-09-06T06:19:04.315Z,100548.69
2022-09-06T06:24:06.347Z,100540.13
2022-09-06T06:29:09.614Z,100545.38
2022-09-06T06:34:11.609Z,100545.59
2022-09-06T06:39:13.153Z,100543.75
2022-09-06T06:44:14.720Z,100534.31
2022-09-06T06:49:16.559Z,100555.06
2022-09-06T06:54:18.322Z,100554.28
2022-09-06T06:59:20.809Z,100556.22
2022-09-06T07:04:23.034Z,100554.34
2022-09-06T07:09:24.820Z,100556.25
2022-09-06T07:14:26.390Z,100554.41
2022-09-06T07:24:49.601Z,100556.13
2022-09-06T07:29:51.193Z,100561.97
2022-09-06T07:34:52.827Z,100559.47
2022-09-06T07:39:54.680Z,100554.28
2022-09-06T07:44:57.720Z,100553.66
2022-09-06T07:55:20.859Z,100562.41
2022-09-06T08:00:22.532Z,100559.91
2022-09-06T08:10:50.707Z,100562.00
2022-09-06T08:16:03.025Z,100563.31
2022-09-06T08:21:12.633Z,100571.69
2022-09-06T08:26:15.963Z,100573.78
2022-09-06T08:31:17.858Z,100577.56
2022-09-06T08:36:20.041Z,100575.06
2022-09-06T08:41:58.541Z,100567.97
2022-09-06T08:47:04.434Z,100556.25
2022-09-06T08:52:11.862Z,100549.53
2022-09-06T08:57:20.316Z,100545.34
2022-09-06T09:02:22.391Z,100544.09
2022-09-06T09:07:59.673Z,100528.56
2022-09-06T09:13:02.706Z,100534.41
2022-09-06T09:18:04.357Z,100525.81
2022-09-06T09:23:06.001Z,100518.50
2022-09-06T09:28:16.617Z,100521.41
2022-09-06T09:33:29.442Z,100518.47
2022-09-06T09:38:35.500Z,100525.59
2022-09-06T09:43:39.704Z,100515.28
2022-09-06T09:49:02.248Z,100496.00
2022-09-06T09:54:07.217Z,100493.28
2022-09-06T09:59:17.149Z,100487.78
2022-09-06T10:04:46.235Z,100480.22
2022-09-06T10:09:49.327Z,100474.50
2022-09-06T10:14:50.948Z,100473.41
2022-09-06T10:19:52.971Z,100474.66
2022-09-06T10:25:32.057Z,100473.72
2022-09-06T10:30:36.366Z,100463.94
2022-09-06T10:35:38.311Z,100468.06
2022-09-06T10:41:10.037Z,100465.75
2022-09-06T10:46:15.192Z,100459.44
2022-09-06T10:51:20.679Z,100458.94
2022-09-06T10:56:44.621Z,100454.69
2022-09-06T11:02:02.761Z,100460.72
2022-09-06T11:07:11.725Z,100454.53
2022-09-06T11:12:34.926Z,100446.59
2022-09-06T11:17:58.812Z,100428.53
2022-09-06T11:23:19.010Z,100428.34
2022-09-06T11:28:29.402Z,100431.97
2022-09-06T11:33:35.509Z,100423.78
2022-09-06T11:38:37.253Z,100420.47
2022-09-06T11:43:53.637Z,100422.28
2022-09-06T11:49:19.932Z,100418.19
2022-09-06T11:54:26.966Z,100407.75
2022-09-06T11:59:52.654Z,100410.69
2022-09-06T12:05:04.627Z,100400.91
2022-09-06T12:10:40.734Z,100389.28
2022-09-06T12:15:52.902Z,100387.53
2022-09-06T12:20:54.922Z,100375.09
2022-09-06T12:25:57.475Z,100367.72
2022-09-06T12:30:59.077Z,100367.81
2022-09-06T12:36:32.984Z,100359.09
2022-09-06T12:41:56.755Z,100366.31
2022-09-06T12:47:03.755Z,100365.97
2022-09-06T12:52:07.062Z,100363.84
2022-09-06T12:57:26.940Z,100355.88
2022-09-06T13:02:37.435Z,100361.28
2022-09-06T13:07:43.027Z,100362.78
2022-09-06T13:12:45.763Z,100369.69
2022-09-06T13:17:47.567Z,100364.03
2022-09-06T13:22:50.873Z,100352.03
2022-09-06T13:27:58.991Z,100365.81
2022-09-06T13:33:01.075Z,100387.25
2022-09-06T13:38:35.022Z,100431.75
2022-09-06T13:43:45.095Z,100430.22
2022-09-06T13:48:46.679Z,100456.34
2022-09-06T13:53:48.951Z,100467.66
2022-09-06T13:58:50.503Z,100492.88
2022-09-06T14:03:52.715Z,100491.69
2022-09-06T14:09:06.818Z,100492.03
2022-09-06T14:14:09.894Z,100488.13
2022-09-06T14:19:11.539Z,100474.78
2022-09-06T14:24:13.197Z,100480.59
2022-09-06T14:29:14.803Z,100474.41
2022-09-06T14:34:16.506Z,100465.69
2022-09-06T14:39:18.567Z,100454.81
2022-09-06T14:44:20.110Z,100430.94
2022-09-06T14:49:21.783Z,100421.97
2022-09-06T14:54:27.367Z,100413.81
2022-09-06T14:59:30.658Z,100399.78
2022-09-06T15:04:33.357Z,100394.94
2022-09-06T15:09:34.954Z,100388.25
2022-09-06T15:14:37.549Z,100381.97
2022-09-06T15:19:39.654Z,100385.31
2022-09-06T15:24:41.277Z,100380.31
2022-09-06T15:29:42.809Z,100372.38
2022-09-06T15:34:44.366Z,100369.00
2022-09-06T15:39:46.018Z,100356.34
2022-09-06T15:44:47.787Z,100349.19
2022-09-06T15:49:49.384Z,100342.72
2022-09-06T15:55:09.712Z,100346.09
2022-09-06T16:00:12.195Z,100341.31
2022-09-06T16:05:13.989Z,100344.88
2022-09-06T16:10:15.550Z,100351.34
2022-09-06T16:15:17.246Z,100358.22
2022-09-06T16:20:19.342Z,100360.28
2022-09-06T16:25:21.057Z,100351.53
2022-09-06T16:30:23.068Z,100344.44
2022-09-06T16:35:25.258Z,100349.88
2022-09-06T16:40:27.558Z,100358.44
2022-09-06T16:45:30.537Z,100346.94
2022-09-06T16:50:33.064Z,100343.19
2022-09-06T16:55:38.163Z,100341.50
2022-09-06T17:00:44.791Z,100341.50
2022-09-06T17:05:53.044Z,100327.31
2022-09-06T17:10:54.991Z,100328.16
2022-09-06T17:16:20.052Z,100323.97
2022-09-06T17:21:24.635Z,100328.19
2022-09-06T17:26:26.562Z,100323.00
2022-09-06T17:31:28.966Z,100328.22
2022-09-06T17:36:32.218Z,100320.47
2022-09-06T17:41:46.855Z,100331.34
2022-09-06T17:47:09.122Z,100334.72
2022-09-06T17:52:11.577Z,100338.72
2022-09-06T17:57:13.491Z,100349.59
2022-09-06T18:02:15.198Z,100354.84
2022-09-06T18:07:17.789Z,100356.06
2022-09-06T18:12:20.363Z,100353.97
2022-09-06T18:17:23.955Z,100360.88
2022-09-06T18:22:25.625Z,100359.22
2022-09-06T18:27:28.292Z,100359.22
2022-09-06T18:32:30.384Z,100361.75
2022-09-06T18:37:36.117Z,100346.88
2022-09-06T18:42:44.105Z,100347.13
2022-09-06T18:47:45.966Z,100340.00
2022-09-06T18:52:47.570Z,100331.66
2022-09-06T18:57:49.351Z,100325.38
2022-09-06T19:02:51.249Z,100334.56
2022-09-06T19:07:53.774Z,100343.78
2022-09-06T19:12:57.085Z,100336.06
2022-09-06T19:17:58.681Z,100333.75
2022-09-06T19:23:00.462Z,100338.97
2022-09-06T19:28:02.406Z,100340.03
2022-09-06T19:33:03.993Z,100347.13
2022-09-06T19:38:06.051Z,100347.75
2022-09-06T19:43:07.686Z,100347.97
2022-09-06T19:48:10.296Z,100336.88
2022-09-06T19:53:12.148Z,100339.59
2022-09-06T19:58:13.740Z,100324.56
2022-09-06T20:03:15.603Z,100309.94
2022-09-06T20:08:17.843Z,100312.88
2022-09-06T20:13:20.460Z,100315.75
2022-09-06T20:18:22.640Z,100312.84
2022-09-06T20:23:24.359Z,100298.59
2022-09-06T20:28:26.315Z,100300.47
2022-09-06T20:33:28.619Z,100305.50
2022-09-06T20:38:31.731Z,100306.97
2022-09-06T20:43:36.558Z,100293.56
2022-09-06T20:48:43.614Z,100290.88
2022-09-06T20:53:56.822Z,100293.56
2022-09-06T20:59:00.760Z,100278.94
2022-09-06T21:04:04.645Z,100277.25
2022-09-06T21:09:12.131Z,100269.34
2022-09-06T21:14:14.168Z,100253.47
2022-09-06T21:19:16.399Z,100243.44
2022-09-06T21:24:18.047Z,100249.88
2022-09-06T21:29:19.736Z,100247.56
2022-09-06T21:34:22.460Z,100236.72
2022-09-06T21:39:24.183Z,100237.75
2022-09-06T21:44:26.316Z,100238.56
2022-09-06T21:49:28.550Z,100232.16
2022-09-06T21:54:30.083Z,100235.47
2022-09-06T21:59:32.082Z,100229.66
2022-09-06T22:04:33.657Z,100224.22
2022-09-06T22:09:35.287Z,100213.13
2022-09-06T22:14:37.102Z,100207.44
2022-09-06T22:19:38.754Z,100221.06
2022-09-06T22:24:40.405Z,100210.44
2022-09-06T22:29:42.174Z,100210.88
2022-09-06T22:34:44.458Z,100217.53
2022-09-06T22:39:48.035Z,100222.94
2022-09-06T22:44:50.046Z,100221.66
2022-09-06T22:49:51.878Z,100224.06
2022-09-06T22:54:53.696Z,100223.63
2022-09-06T22:59:55.534Z,100229.63
2022-09-06T23:04:57.762Z,100236.19
2022-09-06T23:09:59.443Z,100219.56
2022-09-06T23:15:01.116Z,100224.06
2022-09-06T23:20:03.903Z,100213.22
2022-09-06T23:25:07.116Z,100214.50
2022-09-06T23:30:09.578Z,100204.44
2022-09-06T23:35:11.345Z,100203.13
2022-09-06T23:40:13.356Z,100190.22
2022-09-06T23:45:15.229Z,100195.31
2022-09-06T23:50:16.881Z,100189.75
2022-09-06T23:55:18.732Z,100189.81
